»·PEaware :: SWA326 KSEA-KPDX

SWA326 :: KSEA-KPDX

FLIGHT INFORMATION

Flight Status: Arrived
Operator:
Southwest Airlines
More flights by this operator :: More flights under this callsign
Pilot: Erik S. (3779)
Aircraft: BOEING 737-300
(B733)
More flights by this aircraft type
Origin: KSEA Seattle-Tacoma Intl
United States
Destination: KPDX Portland Intl
United States
More flights between these airports :: More routes between these airports
Route: SEA BUWZO KRATR2
File this flight plan on PilotEdge
Remarks:
Altitude:
(Current/Filed)
18,000ft
Speed:
(Current/Filed)
478kts
Departed: 08-Oct-17 03:22 PM
Arrived: 08-Oct-17 03:57 PM
Distance/Time
Traveled:
112nm/0:34
Distance/Time
To Go:
Arrived

Flight Plot

Page will automatically refresh every two minutes.


Map Options




Map Legend


Flown Route
Filed Route
Departure Airport
Arrival Airport
Navaid (VOR, NDB)
Fix

Horizontal Profiles

Position Reports

Time Latitude Longitude Heading Altitude Ground
Speed
08-Oct-17 15:13 47.438916 -122.298240 87 440ft 0kts
08-Oct-17 15:15 47.438916 -122.298240 87 440ft 0kts
08-Oct-17 15:15 47.438916 -122.298240 87 440ft 0kts
08-Oct-17 15:16 47.438916 -122.298240 87 440ft 0kts
08-Oct-17 15:17 47.438916 -122.298240 87 440ft 0kts
08-Oct-17 15:18 47.438916 -122.298240 87 440ft 0kts
08-Oct-17 15:19 47.438916 -122.298240 87 440ft 0kts
08-Oct-17 15:20 47.438892 -122.298993 85 440ft 0kts
08-Oct-17 15:21 47.438850 -122.299428 75 440ft 0kts
08-Oct-17 15:22 47.437674 -122.301527 255 440ft 24kts
08-Oct-17 15:23 47.436177 -122.306093 166 440ft 11kts
08-Oct-17 15:24 47.432351 -122.305763 179 440ft 17kts
08-Oct-17 15:25 47.431282 -122.306378 249 440ft 0kts
08-Oct-17 15:26 47.434222 -122.308017 1 440ft 69kts
08-Oct-17 15:27 47.476413 -122.307447 359 2754ft 191kts
08-Oct-17 15:28 47.532712 -122.293249 47 6431ft 227kts
08-Oct-17 15:29 47.541102 -122.199203 85 10173ft 245kts
08-Oct-17 15:30 47.526982 -122.103056 145 13375ft 274kts
08-Oct-17 15:31 47.455213 -122.144280 227 14741ft 347kts
08-Oct-17 15:32 47.358538 -122.194954 190 17142ft 404kts
08-Oct-17 15:33 47.247031 -122.224052 194 18166ft 414kts
08-Oct-17 15:34 47.131586 -122.256186 194 18313ft 455kts
08-Oct-17 15:35 47.007415 -122.292077 193 18336ft 454kts
08-Oct-17 15:36 46.881601 -122.311427 179 18335ft 460kts
08-Oct-17 15:37 46.753803 -122.311426 179 18338ft 459kts
08-Oct-17 15:38 46.626605 -122.311419 179 18338ft 459kts
08-Oct-17 15:39 46.498679 -122.311414 179 18334ft 459kts
08-Oct-17 15:40 46.374351 -122.311403 179 17048ft 441kts
08-Oct-17 15:41 46.254065 -122.312563 188 14108ft 420kts
08-Oct-17 15:42 46.149598 -122.368770 201 12145ft 374kts
08-Oct-17 15:43 46.059781 -122.418102 200 11228ft 345kts
08-Oct-17 15:44 45.974402 -122.463413 201 9843ft 291kts
08-Oct-17 15:45 45.897067 -122.477919 167 8170ft 291kts
08-Oct-17 15:46 45.820755 -122.453321 167 6327ft 277kts
08-Oct-17 15:47 45.752746 -122.430468 169 5973ft 229kts
08-Oct-17 15:48 45.689577 -122.410290 169 6003ft 234kts
08-Oct-17 15:49 45.625965 -122.390029 165 5997ft 234kts
08-Oct-17 15:50 45.584508 -122.319556 126 5188ft 235kts
08-Oct-17 15:51 45.530996 -122.317975 223 3889ft 205kts
08-Oct-17 15:52 45.534921 -122.384931 281 2637ft 169kts
08-Oct-17 15:53 45.544601 -122.446617 284 1806ft 149kts
08-Oct-17 15:54 45.558459 -122.499924 297 1378ft 132kts
08-Oct-17 15:55 45.575581 -122.546421 299 481ft 132kts
08-Oct-17 15:56 45.594106 -122.593177 299 1006ft 148kts
08-Oct-17 15:57 45.627055 -122.602529 80 1902ft 179kts
08-Oct-17 15:58 45.609707 -122.543518 121 1430ft 157kts
08-Oct-17 15:59 45.575476 -122.546055 250 568ft 141kts
08-Oct-17 16:00 45.591144 -122.586364 298 31ft 56kts
08-Oct-17 16:01 45.592509 -122.596387 197 31ft 13kts
08-Oct-17 16:02 45.592027 -122.596563 191 31ft 0kts
08-Oct-17 16:03 45.592027 -122.596563 191 31ft 0kts
08-Oct-17 16:04 45.592027 -122.596563 191 31ft 0kts
08-Oct-17 16:05 45.592027 -122.596563 191 31ft 0kts
08-Oct-17 16:06 45.592027 -122.596563 191 31ft 0kts
08-Oct-17 16:07 45.592027 -122.596563 191 31ft 0kts
08-Oct-17 16:08 45.592027 -122.596563 191 31ft 0kts

Navigation Log

Ident Type
1. KSEA Airport
2. SEA Navaid
3. KPDX Airport